Elmira Corning Regional Airport
KELM : now visible

Airfield :











YOU CAN JOIN US ON...

 
LOGIN :

Register | Disclaimer

   EN    FR    IT 

 









Legend :    VFR   Marginal VFR   IFR   Intensive IFR   Very Intensive IFR
Visi :
Ceiling :
>= 8 km
>= 3000ft
5 to 8 km
1000 to 3000 ft
1500m to 5 km
500 to 1000 ft
800 to 1500m
200 to 500 ft
< 800m
< 200 ft
Symbols :   Thunderstorms  Fog  Heavy snow  Heavy precipitations  Wind > 20 kt






- Airport Elevation : 954 ft
- IATA code : ELM


KELM - Elmira Corning Regional

CURRENT METAR :
  • 280814Z AUTO 27009G19KT 10SM BKN025 OVC032 06/03 A2954 RMK AO2 T00610028

EXPIRED METARs :
  • 280753Z AUTO 27011KT 10SM FEW027 BKN032 OVC060 06/03 A2952 RMK AO2 SLP000 T00610028
  • 280706Z AUTO 30016G22KT 10SM SCT025 BKN032 OVC050 07/04 A2947 RMK AO2 T00720044
  • 280653Z AUTO 31012G30KT 10SM FEW018 BKN025 OVC032 08/05 A2946 RMK AO2 PK WND 30030/0646 RAE0559B33E51 PRESRR SLP980 P0000 T00780050
  • 280624Z AUTO VRB05KT 10SM FEW017 BKN028 OVC045 09/07 A2943 RMK AO2 RAE0559 P0000 T00940072
  • 280600Z AUTO 27009KT 10SM FEW018 SCT025 OVC045 10/07 A2941 RMK AO2 RAE0559 P0000 T01000072
  • 280537Z AUTO 31004KT 9SM SCT020 BKN029 OVC036 09/07 A2940 RMK AO2 T00890072
  • 280524Z AUTO 22005KT 10SM OVC030 07/06 A2939 RMK AO2 T00670061

TAF KELM
Valid from the 28 at 06:00 until the 29 at 06:00 UTC


280520Z 2806/2906 25009KT P6SM BKN025
FM280800 29012G21KT P6SM OVC019
FM281700 31009G16KT P6SM OVC024
FM290100 32005KT P6SM BKN028
KZNY FIR / North America



MET'MAP, your aeronautical weather chart ! - Copyright ORBIFLY December 2007 - Disclaimer

ORBIFLY MET'MAP TEAM :

Programming & Development : Alexandra Zaïnal
Original concept : Baudouin d'Aumeries
Technical & hardware support : Manuel Goepfert
Assistance : Marc-Olivier Méhu




SOURCES & CREDITS :

   NOAA       Earth
Advisory